Latest Weather Observations for Port Hedland

IDW60801

Issued at 7:32 am WST Thursday 28 May 2015 (issued every 30 minutes, with the page automatically refreshed every 10 minutes)

About weather observations | Map of weather stations | Latest weather observations for WA | Other Formats
Station Details ID: 004032 Name: PORT HEDLAND AIRPORT Lat: -20.37 Lon: 118.63 Height: 6.4 m
Data from the previous 72 hours. | See also: Recent months at Port Hedland
Date/Time
WST
Temp
°C
App
Temp
°C
Dew
Point
Rel
Hum
%
Delta-T
°C
Wind Press
QNH
hPa
Press
MSL
hPa
Rain
since 9 am
mm
Dir
 
Spd
km/h
Gust
km/h
Spd
kts
Gust
kts
28/07:00am 18.7 19.8 17.9 95 0.5 SE 9 13 5 7 1015.6 - 3.4
28/06:30am 18.7 19.3 17.7 94 0.6 ESE 11 15 6 8 1015.1 - 3.2
28/05:30am 18.9 19.5 17.6 92 0.8 SE 11 17 6 9 1014.9 - 3.0
28/05:00am 18.9 18.6 17.3 90 1.0 ESE 15 20 8 11 1014.4 - 3.0
28/04:30am 18.9 18.2 17.3 90 1.0 ESE 17 24 9 13 1014.3 - 3.0
28/04:00am 18.7 18.4 17.4 92 0.8 ESE 15 20 8 11 1014.4 - 3.0
28/03:30am 18.8 18.6 17.5 92 0.8 ESE 15 19 8 10 1014.5 - 3.0
28/03:00am 18.8 18.9 17.5 92 0.8 SE 13 19 7 10 1014.7 1014.7 3.0
28/02:30am 18.8 18.6 17.5 92 0.8 ESE 15 22 8 12 1014.9 - 3.0
28/02:00am 18.6 18.0 17.6 94 0.6 ESE 17 24 9 13 1015.1 - 3.0
28/01:30am 18.5 17.4 17.7 95 0.5 E 20 30 11 16 1015.3 - 3.0
28/01:00am 18.8 17.8 17.5 92 0.8 SE 19 24 10 13 1015.5 - 3.0
28/12:30am 19.1 18.1 17.5 90 1.0 ESE 19 26 10 14 1015.8 - 3.0
28/12:00am 19.2 19.1 17.9 92 0.8 ESE 15 22 8 12 1015.7 1015.7 3.0
 
Date/Time
WST
Temp
°C
App
Temp
°C
Dew
Point
Rel
Hum
%
Delta-T
°C
Wind Press
QNH
hPa
Press
MSL
hPa
Rain
since 9 am
mm
Dir
 
Spd
km/h
Gust
km/h
Spd
kts
Gust
kts
27/11:30pm 19.3 19.2 17.8 91 0.9 SE 15 20 8 11 1015.9 - 3.0
27/11:00pm 19.4 18.9 17.8 90 1.0 SE 17 26 9 14 1016.1 - 3.0
27/10:30pm 19.5 19.5 18.2 92 0.8 SSE 15 20 8 11 1016.1 - 3.0
27/10:00pm 19.5 19.3 18.4 93 0.7 SE 17 26 9 14 1016.1 - 3.0
27/09:30pm 19.7 19.5 18.6 93 0.7 SSE 17 20 9 11 1016.1 - 3.0
27/09:00pm 19.7 19.6 18.7 94 0.6 SSE 17 22 9 12 1015.9 1015.9 3.0
27/08:30pm 19.7 19.2 18.7 94 0.6 ESE 19 24 10 13 1015.6 - 3.0
27/08:00pm 19.8 19.7 18.8 94 0.6 SE 17 24 9 13 1015.7 - 3.0
27/07:30pm 19.6 19.2 19.0 96 0.4 SSE 19 24 10 13 1015.6 - 3.0
27/07:00pm 19.6 19.2 18.8 95 0.5 SSE 19 24 10 13 1015.0 - 3.0
27/06:30pm 19.5 19.1 18.9 96 0.4 SSE 19 28 10 15 1014.8 - 3.0
27/06:00pm 19.4 18.8 18.9 97 0.3 SSE 20 26 11 14 1014.1 1014.1 3.0
27/05:30pm 19.6 18.2 18.8 95 0.5 S 24 33 13 18 1014.5 - 3.0
27/05:29pm 19.6 18.2 18.8 95 0.5 S 24 33 13 18 1014.5 - 3.0
27/05:16pm 19.5 20.3 19.0 97 0.3 S 13 19 7 10 1014.3 - 2.8
27/05:06pm 19.6 20.0 19.0 96 0.4 SSW 15 19 8 10 1014.8 - 1.6
27/05:04pm 19.5 19.5 18.9 96 0.4 SSW 17 19 9 10 1014.7 - 1.6
27/05:00pm 19.6 19.2 18.8 95 0.5 S 19 24 10 13 1014.3 - 1.6
27/04:47pm 19.6 19.0 18.8 95 0.5 S 20 30 11 16 1014.0 - 1.4
27/04:30pm 19.9 18.7 18.5 92 0.9 S 22 30 12 16 1013.9 - 0.4
27/04:00pm 20.1 19.0 18.7 92 0.9 S 22 28 12 15 1013.8 - 0.4
27/03:46pm 20.3 19.9 18.9 92 0.9 S 19 28 10 15 1013.7 - 0.4
27/03:30pm 20.6 20.2 18.8 89 1.1 SE 19 24 10 13 1013.2 - 0.4
27/03:00pm 20.6 20.6 19.0 90 1.0 SE 17 24 9 13 1012.7 1012.7 0.2
27/02:30pm 20.9 19.0 18.5 86 1.5 SSE 26 35 14 19 1012.8 - 0.2
27/02:00pm 21.0 19.6 18.9 88 1.3 SSE 24 32 13 17 1013.1 - 0.2
27/01:30pm 20.6 19.3 19.0 90 1.0 SSE 24 32 13 17 1013.0 - 0.2
27/01:00pm 21.0 19.2 18.8 87 1.4 S 26 32 14 17 1014.0 - 0.2
27/12:30pm 22.6 22.6 19.0 80 2.3 SSE 17 22 9 12 1014.5 - 0.2
27/12:00pm 23.8 23.2 17.5 68 3.9 SSE 17 20 9 11 1014.6 1014.6 0.0
27/11:30am 24.2 23.3 16.9 63 4.5 ESE 17 20 9 11 1014.8 - 0.0
27/11:00am 23.1 22.5 17.6 71 3.4 ESE 17 20 9 11 1015.1 - 0.0
27/10:30am 22.2 21.2 17.5 74 2.9 ESE 19 24 10 13 1015.6 - 0.0
27/10:00am 21.4 20.5 17.8 80 2.2 ESE 19 24 10 13 1016.0 - 0.0
27/09:30am 20.9 21.3 18.2 84 1.7 ESE 13 19 7 10 1016.4 - 0.0
27/09:00am 20.3 21.4 18.0 87 1.4 SE 9 15 5 8 1016.3 1016.3 6.0
27/08:30am 19.2 19.5 17.9 92 0.8 E 13 19 7 10 1016.1 - 6.0
27/08:00am 18.9 19.5 17.6 92 0.8 ESE 11 13 6 7 1016.1 - 5.4
27/07:42am 19.1 20.3 17.3 89 1.1 ENE 7 11 4 6 1016.5 - 4.6
27/07:30am 19.2 18.3 16.9 86 1.4 E 17 20 9 11 1015.9 - 2.2
27/07:00am 20.9 20.2 15.5 71 3.2 ESE 13 17 7 9 1016.0 - 0.0
27/06:30am 20.9 19.5 15.5 71 3.2 E 17 20 9 11 1015.5 - 0.0
27/06:00am 21.0 18.9 15.3 70 3.4 E 20 28 11 15 1015.5 1015.5 0.0
27/05:30am 21.2 19.6 15.1 68 3.6 ESE 17 20 9 11 1015.4 - 0.0
27/05:00am 21.3 19.7 15.0 67 3.7 ESE 17 22 9 12 1014.9 - 0.0
27/04:30am 21.4 19.7 14.8 66 3.9 ESE 17 22 9 12 1014.8 - 0.0
27/04:00am 21.6 19.9 14.8 65 4.0 ESE 17 24 9 13 1014.9 - 0.0
27/03:30am 21.7 20.2 15.3 67 3.8 ESE 17 20 9 11 1015.1 - 0.0
27/03:00am 21.4 21.3 16.1 72 3.2 SE 11 15 6 8 1015.2 1015.2 0.0
27/02:30am 21.2 21.1 16.0 72 3.1 SE 11 15 6 8 1015.3 - 0.0
27/02:00am 21.2 20.7 16.0 72 3.1 SE 13 17 7 9 1015.6 - 0.0
27/01:30am 21.1 20.8 16.5 75 2.8 SSE 13 15 7 8 1015.8 - 0.0
27/01:00am 21.4 21.0 16.3 72 3.1 SE 13 17 7 9 1015.9 - 0.0
27/12:30am 21.5 21.1 16.2 72 3.2 SE 13 17 7 9 1016.3 - 0.0
27/12:00am 21.6 21.2 16.1 71 3.3 ESE 13 17 7 9 1016.5 1016.5 0.0
 
Date/Time
WST
Temp
°C
App
Temp
°C
Dew
Point
Rel
Hum
%
Delta-T
°C
Wind Press
QNH
hPa
Press
MSL
hPa
Rain
since 9 am
mm
Dir
 
Spd
km/h
Gust
km/h
Spd
kts
Gust
kts
26/11:30pm 21.8 21.3 16.0 69 3.5 SE 13 17 7 9 1016.7 - 0.0
26/11:00pm 21.8 21.4 16.2 70 3.4 SE 13 17 7 9 1017.1 - 0.0
26/10:30pm 21.9 22.0 16.6 72 3.2 SE 11 15 6 8 1017.4 - 0.0
26/10:00pm 22.1 22.4 17.0 73 3.1 SE 11 15 6 8 1017.4 - 0.0
26/09:30pm 22.6 23.8 19.0 80 2.3 SE 11 15 6 8 1017.4 - 0.0
26/09:00pm 22.8 24.2 19.5 81 2.1 SE 11 13 6 7 1017.4 1017.4 0.0
26/08:30pm 22.8 24.7 19.7 83 2.0 SE 9 11 5 6 1017.4 - 0.0
26/08:00pm 22.7 25.0 19.9 84 1.8 SE 7 11 4 6 1017.3 - 0.0
26/07:30pm 22.6 24.5 19.8 84 1.8 ESE 9 9 5 5 1016.9 - 0.0
26/07:00pm 22.9 25.1 19.6 81 2.1 ESE 7 9 4 5 1016.4 - 0.0
26/06:30pm 23.2 26.1 19.9 82 2.1 ENE 4 9 2 5 1016.1 - 0.0
26/06:00pm 23.4 25.8 20.0 81 2.2 NE 7 9 4 5 1015.9 1015.9 0.0
26/05:30pm 23.9 25.8 19.7 77 2.7 NE 9 9 5 5 1015.8 - 0.0
26/05:00pm 24.3 25.3 19.5 74 3.1 NNE 13 17 7 9 1015.5 - 0.0
26/04:30pm 24.7 25.1 19.1 71 3.6 NNE 15 19 8 10 1015.4 - 0.0
26/04:00pm 25.3 24.4 18.3 65 4.4 NNE 20 24 11 13 1015.3 - 0.0
26/03:30pm 25.5 23.8 18.0 63 4.7 NE 24 30 13 16 1015.2 - 0.0
26/03:00pm 25.5 24.1 18.0 63 4.7 NNE 22 28 12 15 1015.3 1015.3 0.0
26/02:30pm 26.4 25.6 18.5 62 5.0 NNE 20 24 11 13 1015.3 - 0.0
26/02:00pm 26.2 25.0 17.6 59 5.4 NNE 20 26 11 14 1015.3 - 0.0
26/01:30pm 26.6 25.2 16.9 55 6.0 ENE 20 26 11 14 1015.6 - 0.0
26/01:00pm 25.4 23.8 14.9 52 6.3 ENE 17 24 9 13 1015.8 - 0.0
26/12:30pm 24.0 22.0 14.9 56 5.4 E 19 24 10 13 1016.3 - 0.0
26/12:00pm 23.2 20.4 14.4 57 5.2 E 22 26 12 14 1016.7 1016.7 0.0
26/11:30am 23.8 21.0 14.3 55 5.6 E 22 30 12 16 1017.1 - 0.0
26/11:00am 21.9 19.1 13.2 57 5.0 E 20 28 11 15 1017.4 - 0.0
26/10:30am 21.3 18.9 14.3 64 4.1 ESE 20 24 11 13 1017.7 - 0.0
26/10:00am 20.0 18.2 15.4 75 2.7 SE 19 24 10 13 1018.0 - 0.0
26/09:30am 18.6 16.2 15.4 81 1.9 ESE 22 32 12 17 1017.9 - 0.0
26/09:00am 18.0 15.1 15.1 83 1.7 E 24 32 13 17 1017.7 1017.7 9.6
26/08:30am 17.7 15.1 14.8 83 1.7 E 22 33 12 18 1017.9 - 9.4
26/08:00am 19.7 17.0 12.8 64 3.9 E 19 24 10 13 1017.8 - 9.0
26/07:30am 19.4 17.4 12.8 65 3.7 E 15 22 8 12 1017.5 - 9.0
26/07:00am 19.4 16.6 12.6 64 3.8 ESE 19 24 10 13 1017.2 - 9.0
26/06:30am 19.3 16.5 12.7 65 3.7 ESE 19 24 10 13 1016.9 - 9.0
26/06:00am 19.1 16.3 12.7 66 3.6 ESE 19 24 10 13 1016.5 1016.5 9.0
26/05:30am 19.0 16.6 12.8 67 3.5 SE 17 24 9 13 1016.1 - 9.0
26/05:00am 19.2 16.8 12.6 65 3.7 SE 17 24 9 13 1016.1 - 9.0
26/04:30am 19.1 16.5 13.1 68 3.4 SE 19 26 10 14 1015.9 - 9.0
26/04:00am 19.1 16.5 13.1 68 3.4 SE 19 24 10 13 1016.1 - 9.0
26/03:30am 19.1 16.3 13.1 68 3.4 ESE 20 26 11 14 1016.0 - 9.0
26/03:00am 19.1 17.0 13.7 71 3.1 SE 17 20 9 11 1016.1 1016.1 9.0
26/02:30am 19.3 18.0 13.7 70 3.2 SE 13 19 7 10 1016.5 - 9.0
26/02:00am 19.3 17.2 13.5 69 3.3 SE 17 24 9 13 1016.7 - 9.0
26/01:30am 19.4 17.4 13.8 70 3.2 SE 17 22 9 12 1016.7 - 9.0
26/01:00am 19.2 17.7 14.2 73 2.9 SE 15 22 8 12 1016.8 - 9.0
26/12:30am 18.9 17.1 14.4 75 2.6 ESE 17 24 9 13 1016.8 - 9.0
26/12:00am 18.9 17.7 15.0 78 2.3 SE 15 20 8 11 1017.2 1017.2 9.0
 
Date/Time
WST
Temp
°C
App
Temp
°C
Dew
Point
Rel
Hum
%
Delta-T
°C
Wind Press
QNH
hPa
Press
MSL
hPa
Rain
since 9 am
mm
Dir
 
Spd
km/h
Gust
km/h
Spd
kts
Gust
kts
25/11:30pm 19.0 18.2 15.1 78 2.3 SE 13 19 7 10 1017.7 - 8.8
25/11:00pm 19.3 18.6 15.4 78 2.3 SE 13 17 7 9 1017.9 - 8.6
25/10:30pm 19.8 18.6 15.0 74 2.8 SE 15 19 8 10 1017.8 - 8.0
25/10:00pm 19.9 18.7 15.1 74 2.8 SE 15 20 8 11 1017.6 - 8.0
25/09:30pm 19.9 19.2 15.3 75 2.7 SE 13 20 7 11 1017.5 - 8.0
25/09:00pm 19.9 19.7 15.7 77 2.5 SE 11 15 6 8 1017.5 1017.5 8.0
25/08:30pm 19.9 18.6 14.8 72 3.0 SE 15 20 8 11 1017.4 - 8.0
25/08:00pm 20.0 18.2 14.5 70 3.2 SE 17 24 9 13 1017.2 - 8.0
25/07:30pm 20.2 17.8 14.3 69 3.4 ESE 20 28 11 15 1016.8 - 8.0
25/07:00pm 20.2 18.5 14.7 70 3.2 SE 17 24 9 13 1016.6 - 8.0
25/06:30pm 20.6 19.3 14.8 69 3.4 ESE 15 20 8 11 1016.4 - 8.0
25/06:00pm 20.9 19.1 14.4 66 3.8 ESE 17 24 9 13 1016.0 1016.0 8.0
25/05:30pm 21.2 19.3 14.1 64 4.1 ESE 17 22 9 12 1015.6 - 8.0
25/05:00pm 21.9 18.9 13.8 60 4.7 ESE 22 28 12 15 1015.2 - 8.0
25/04:30pm 22.4 19.0 13.8 58 5.0 ESE 24 32 13 17 1015.1 - 8.0
25/04:00pm 22.8 19.6 14.3 58 5.0 ESE 24 32 13 17 1014.8 - 8.0
25/03:30pm 22.9 19.2 13.8 56 5.3 ESE 26 33 14 18 1014.6 - 8.0
25/03:00pm 22.5 18.6 14.3 59 4.8 ESE 28 35 15 19 1014.9 1014.9 8.0
25/02:30pm 22.3 17.7 14.7 62 4.5 ESE 32 41 17 22 1014.9 - 8.0
25/02:00pm 21.5 17.1 15.1 67 3.8 ESE 32 46 17 25 1014.8 - 8.0
25/01:30pm 21.0 16.4 15.1 69 3.5 ESE 33 43 18 23 1015.0 - 8.0
25/01:00pm 20.1 15.7 15.2 73 2.9 ESE 32 43 17 23 1015.6 - 8.0
25/12:30pm 19.4 15.6 15.7 79 2.2 ESE 30 44 16 24 1016.0 - 8.0
25/12:00pm 18.0 14.5 15.4 85 1.5 ESE 28 35 15 19 1016.7 1016.7 8.0
25/11:30am 16.9 13.8 15.5 91 0.8 SSE 26 33 14 18 1017.3 - 8.0
25/11:00am 17.0 13.3 15.1 88 1.1 ESE 28 39 15 21 1017.5 - 7.6
25/10:30am 16.6 12.2 15.2 91 0.8 ESE 32 43 17 23 1016.9 - 7.6
25/10:00am 16.0 11.6 15.1 94 0.5 ESE 32 44 17 24 1017.2 - 7.4
25/09:30am 16.1 11.8 15.4 96 0.4 ESE 32 46 17 25 1017.8 - 5.0
25/09:00am 16.4 14.0 15.5 94 0.5 ESE 22 30 12 16 1019.0 1019.0 14.4
25/08:30am 16.4 13.2 15.4 94 0.6 ESE 26 35 14 19 1018.4 - 12.8
25/08:00am 16.3 11.8 14.9 91 0.8 E 32 39 17 21 1017.8 - 12.2

Other Formats:

Comma delimited format used in spreadsheet applications
http://www.bom.gov.au/fwo/IDW60801/IDW60801.94312.axf

JavaScript Object Notation format (JSON) in row-major order
http://www.bom.gov.au/fwo/IDW60801/IDW60801.94312.json